Airfield :
LOGIN :

Register | Disclaimer

   EN    FR    IT 

 










Legend :    VFR   Marginal VFR   IFR   Intensive IFR   Very Intensive IFR
Visi :
Ceiling :
>= 8 km
>= 3000ft
5 to 8 km
1000 to 3000 ft
1500m to 5 km
500 to 1000 ft
800 to 1500m
200 to 500 ft
< 800m
< 200 ft
Symbols :   Thunderstorms  Fog  Heavy snow  Heavy precipitations  Wind > 20 kt
SIGMETs :     Misc.  Thunderstorms  Icing  Turbulence  Mountain Waves  Volcanic Ashes






- Airport Elevation : 277 ft
- IATA code : JER


EGJJ - Jersey

CURRENT METAR :
  • 170550Z 20018KT 8000 SHRA FEW006 BKN010 12/10 Q1007

EXPIRED METARs :
  • 170520Z 19011KT 160V220 9999 RA FEW011 BKN016 13/11 Q1007
  • 170450Z 19011KT 9999 FEW020 SCT045 13/11 Q1007
  • 170420Z AUTO 20009KT 9999 FEW020/// SCT035/// 13/10 Q1007
  • 170350Z AUTO 20009KT 9999 FEW018/// 12/10 Q1007
  • 170320Z AUTO 21009KT 9999 NCD 12/10 Q1008

TAF TAF EGJJ
Valid from the 17 at 06:00 until the 17 at 15:00 UTC


170455Z 1706/1715 20012KT 9999 SCT020
TEMPO 1706/1715 5000 SHRA BKN015TCU
ATIS : +44 1534 498 073



MET'MAP, your aeronautical weather chart ! - Copyright ORBIFLY December 2007 - Disclaimer

ORBIFLY MET'MAP TEAM :

Programming & Development : Alexandra Zaïnal
Concept & Development : Baudouin d'Aumeries
Co-Development & Prog : Marc-Olivier Méhu
Technical & hardware support : Manuel Goepfert

Contact : metmap@orbifly.com




SOURCES & CREDITS :

   NOAA